Foxridge, Maryland
Current Conditions -  °F | °C
As of 4:54 AM on Thursday 23 Oct 2014 (Local Time) from KBWI Reporting Station
Overcast Overcast  
Wind Chill: 52°   Ceiling: 3100
Heat Index: 52°   Visibility: 9mi
Dew Point: 42°   Wind: 10mph
Humidity: 69%   Direction: 300°WNW
Pressure: 29.85"   Gusts: 21mph
Location:  39.3744°N, 76.8156°W
Report Text: KBWI 230854Z 30009G18KT 9SM OVC031 11/06 A2985 RMK AO2 SLP107 T01110056 55007
Loading
Personal Weather Stations






























Interactive Weather Map New forecast layout! Learn more

10-Day Weather Forecast

Advertisements
Track Severe Weather on mobile